Time;durP1;ratioP1;P1;durP2;ratioP2;P2;SDS_P1;SDS_P2;PMS_P1;PMS_P2;Temp;Humidity;BMP_temperature;BMP_pressure;BME280_temperature;BME280_humidity;BME280_pressure;Samples;Min_cycle;Max_cycle;Signal;HPM_P1;HPM_P2
2023/05/09 00:01:13;;;;;;;0.85;0.60;;;11.60;96.30;;;;;;4432288;32;20066;-67
2023/05/09 00:03:39;;;;;;;0.52;0.40;;;11.50;96.70;;;;;;4429888;32;20123;-67
2023/05/09 00:06:06;;;;;;;5.53;1.80;;;11.60;96.60;;;;;;4432363;32;20117;-67
2023/05/09 00:08:32;;;;;;;1.52;0.50;;;11.50;96.80;;;;;;4428787;32;20105;-67
2023/05/09 00:10:57;;;;;;;0.50;0.50;;;11.50;96.90;;;;;;4430652;32;20065;-67
2023/05/09 00:13:24;;;;;;;0.65;0.65;;;11.40;96.90;;;;;;4430961;32;20426;-67
2023/05/09 00:15:56;;;;;;;0.40;0.40;;;11.40;97.30;;;;;;4431529;32;20646;-67
2023/05/09 00:18:21;;;;;;;0.22;0.22;;;11.40;97.20;;;;;;4430487;32;20085;-67
2023/05/09 00:20:48;;;;;;;0.35;0.35;;;11.40;97.50;;;;;;4429668;32;20090;-66
2023/05/09 00:23:13;;;;;;;0.50;0.50;;;11.30;97.90;;;;;;4428904;32;20085;-66
2023/05/09 00:25:39;;;;;;;0.55;0.47;;;11.30;97.70;;;;;;4429124;32;20085;-67
2023/05/09 00:28:04;;;;;;;0.40;0.40;;;11.30;97.70;;;;;;4434552;32;20517;-68
2023/05/09 00:30:30;;;;;;;0.40;0.40;;;11.40;97.60;;;;;;4429863;32;20077;-67
2023/05/09 00:32:56;;;;;;;0.30;0.30;;;11.30;97.70;;;;;;4433344;32;20089;-66
2023/05/09 00:35:21;;;;;;;1.15;0.45;;;11.30;97.80;;;;;;4434039;32;20146;-67
2023/05/09 00:37:47;;;;;;;0.50;0.50;;;11.30;97.50;;;;;;4433152;32;20062;-67
2023/05/09 00:40:12;;;;;;;0.43;0.43;;;11.30;97.80;;;;;;4433473;32;20126;-67
2023/05/09 00:42:38;;;;;;;0.50;0.50;;;11.10;97.80;;;;;;4432237;32;20508;-66
2023/05/09 00:45:04;;;;;;;0.37;0.37;;;11.00;98.60;;;;;;4430090;32;20472;-67
2023/05/09 00:47:30;;;;;;;1.30;1.00;;;11.10;98.30;;;;;;4430969;32;20633;-67
2023/05/09 00:49:56;;;;;;;0.60;0.60;;;11.00;98.10;;;;;;4436702;32;20172;-67
2023/05/09 00:52:24;;;;;;;0.40;0.40;;;11.10;98.20;;;;;;4433678;32;20097;-66
2023/05/09 00:54:51;;;;;;;0.40;0.40;;;11.10;98.30;;;;;;4433068;32;20069;-67
2023/05/09 00:57:16;;;;;;;0.68;0.68;;;11.10;98.10;;;;;;4431557;32;20081;-67
2023/05/09 00:59:42;;;;;;;0.55;0.50;;;11.00;98.10;;;;;;4434041;32;20379;-67
2023/05/09 01:02:07;;;;;;;1.37;0.70;;;11.10;98.30;;;;;;4432780;32;20093;-67
2023/05/09 01:04:33;;;;;;;0.50;0.50;;;11.20;97.50;;;;;;4430556;32;20120;-68
2023/05/09 01:07:29;;;;;;;0.68;0.68;;;11.20;97.60;;;;;;4432954;32;20710;-67
2023/05/09 01:10:00;;;;;;;16.55;0.85;;;11.10;97.60;;;;;;4428371;32;20510;-66
2023/05/09 01:12:34;;;;;;;0.80;0.80;;;11.20;97.70;;;;;;4430101;32;20093;-67
2023/05/09 01:15:24;;;;;;;0.60;0.60;;;11.20;97.70;;;;;;4431739;32;20073;-67
2023/05/09 01:18:14;;;;;;;0.40;0.40;;;11.20;97.20;;;;;;4430909;32;20560;-67
2023/05/09 01:20:45;;;;;;;0.52;0.50;;;11.20;97.20;;;;;;4428083;32;20073;-67
2023/05/09 01:23:47;;;;;;;0.30;0.30;;;11.20;97.20;;;;;;4424691;32;20093;-67
2023/05/09 01:26:20;;;;;;;0.55;0.55;;;11.20;97.20;;;;;;4427227;32;20509;-67
2023/05/09 01:29:25;;;;;;;0.60;0.60;;;11.40;97.00;;;;;;4431280;32;20080;-68
2023/05/09 01:31:54;;;;;;;0.32;0.32;;;11.30;97.20;;;;;;4421221;32;20057;-66
2023/05/09 01:34:22;;;;;;;0.47;0.47;;;11.20;96.90;;;;;;4429366;32;20098;-67
2023/05/09 01:36:50;;;;;;;2.12;1.20;;;11.00;97.20;;;;;;4431391;32;20077;-67
2023/05/09 01:39:18;;;;;;;0.32;0.32;;;11.00;97.40;;;;;;4431819;32;20076;-67
2023/05/09 01:41:44;;;;;;;0.40;0.40;;;11.00;97.20;;;;;;4431857;32;20137;-68
2023/05/09 01:44:12;;;;;;;0.60;0.60;;;11.10;97.00;;;;;;4431834;32;20078;-67
2023/05/09 01:46:39;;;;;;;0.30;0.30;;;11.20;96.80;;;;;;4432975;32;20136;-67
2023/05/09 01:49:07;;;;;;;0.30;0.30;;;11.10;96.90;;;;;;4427149;32;20108;-67
2023/05/09 01:51:35;;;;;;;0.60;0.60;;;10.90;97.50;;;;;;4432066;32;20108;-67
2023/05/09 01:54:01;;;;;;;0.50;0.50;;;11.00;97.30;;;;;;4430813;32;20073;-68
2023/05/09 01:56:27;;;;;;;0.40;0.40;;;11.10;97.00;;;;;;4430324;32;20053;-71
2023/05/09 01:58:54;;;;;;;0.60;0.60;;;11.00;97.00;;;;;;4432557;32;20097;-68
2023/05/09 02:01:20;;;;;;;0.40;0.40;;;10.90;97.80;;;;;;4429648;32;20081;-66
2023/05/09 02:03:49;;;;;;;1.12;0.50;;;10.90;97.40;;;;;;4432586;32;20066;-66
2023/05/09 02:06:16;;;;;;;5.10;0.52;;;10.90;97.00;;;;;;4434625;32;20085;-67
2023/05/09 02:08:42;;;;;;;0.82;0.82;;;10.80;97.50;;;;;;4429525;32;20086;-67
2023/05/09 02:11:08;;;;;;;0.52;0.52;;;10.70;97.10;;;;;;4428607;32;20076;-67
2023/05/09 02:13:33;;;;;;;0.50;0.50;;;10.70;98.20;;;;;;4430785;32;20062;-67
2023/05/09 02:16:00;;;;;;;0.30;0.30;;;10.70;97.40;;;;;;4428959;32;20061;-67
2023/05/09 02:18:26;;;;;;;5.72;0.68;;;10.60;97.40;;;;;;4433675;32;20080;-68
2023/05/09 02:20:51;;;;;;;0.30;0.30;;;10.50;97.90;;;;;;4433522;32;20085;-67
2023/05/09 02:23:17;;;;;;;0.50;0.50;;;10.40;97.90;;;;;;4430649;32;20081;-67
2023/05/09 02:25:43;;;;;;;0.40;0.40;;;10.50;97.50;;;;;;4434399;32;20374;-68
2023/05/09 02:28:09;;;;;;;0.52;0.43;;;10.50;97.50;;;;;;4436407;32;20093;-67
2023/05/09 02:30:40;;;;;;;0.47;0.47;;;10.40;97.40;;;;;;4430735;32;20413;-66
2023/05/09 02:33:07;;;;;;;;;;;10.30;97.80;;;;;;4425285;32;20081;-67
2023/05/09 02:35:34;;;;;;;0.50;0.50;;;10.40;97.60;;;;;;4430886;32;20012;-67
2023/05/09 02:38:00;;;;;;;0.50;0.50;;;10.40;97.70;;;;;;4436481;32;20057;-67
2023/05/09 02:40:26;;;;;;;1.45;1.05;;;10.40;97.70;;;;;;4432784;32;20124;-66
2023/05/09 02:42:52;;;;;;;0.30;0.30;;;10.40;97.50;;;;;;4430538;32;20090;-67
2023/05/09 02:45:17;;;;;;;0.35;0.35;;;10.30;97.40;;;;;;4430388;32;20086;-67
2023/05/09 02:47:43;;;;;;;0.52;0.52;;;10.40;97.60;;;;;;4431462;32;20090;-67
2023/05/09 02:50:09;;;;;;;0.43;0.43;;;10.40;97.60;;;;;;4428476;32;20077;-66
2023/05/09 02:52:34;;;;;;;0.47;0.47;;;10.30;97.80;;;;;;4433549;32;20081;-67
2023/05/09 02:55:00;;;;;;;0.45;0.45;;;10.20;97.80;;;;;;4432788;32;20115;-67
2023/05/09 02:57:25;;;;;;;0.80;0.68;;;10.20;98.30;;;;;;4430944;32;20340;-68
2023/05/09 02:59:51;;;;;;;1.15;1.05;;;10.40;97.60;;;;;;4427847;32;20056;-67
2023/05/09 03:02:16;;;;;;;0.82;0.80;;;10.30;97.40;;;;;;4431522;32;20061;-66
2023/05/09 03:04:42;;;;;;;1.37;0.77;;;10.30;97.70;;;;;;4431451;32;20084;-67
2023/05/09 03:07:07;;;;;;;0.40;0.40;;;10.30;97.90;;;;;;4432567;32;20073;-67
2023/05/09 03:09:33;;;;;;;0.50;0.50;;;10.20;97.80;;;;;;4430205;32;20443;-70
2023/05/09 03:11:58;;;;;;;0.40;0.40;;;10.10;98.00;;;;;;4431805;32;20411;-67
2023/05/09 03:14:24;;;;;;;0.50;0.50;;;10.10;97.70;;;;;;4430747;32;20132;-67
2023/05/09 03:16:50;;;;;;;0.50;0.50;;;10.10;98.10;;;;;;4430648;32;20553;-67
2023/05/09 03:19:15;;;;;;;0.30;0.30;;;10.10;97.60;;;;;;4432493;32;20081;-67
2023/05/09 03:21:41;;;;;;;0.70;0.70;;;10.10;97.80;;;;;;4433095;32;20061;-67
2023/05/09 03:24:07;;;;;;;0.55;0.55;;;10.00;98.20;;;;;;4431564;32;20505;-67
2023/05/09 03:26:34;;;;;;;0.28;0.28;;;9.90;98.20;;;;;;4430587;32;20069;-67
2023/05/09 03:29:00;;;;;;;0.57;0.57;;;9.90;98.30;;;;;;4430570;32;20532;-67
2023/05/09 03:31:26;;;;;;;0.50;0.50;;;9.90;98.20;;;;;;4433214;32;20057;-67
2023/05/09 03:33:51;;;;;;;0.52;0.52;;;10.00;97.90;;;;;;4432727;32;20128;-67
2023/05/09 03:36:17;;;;;;;5.18;2.17;;;10.00;98.30;;;;;;4429011;32;20065;-66
2023/05/09 03:38:42;;;;;;;0.60;0.60;;;10.00;98.70;;;;;;4429316;32;20077;-67
2023/05/09 03:41:08;;;;;;;0.40;0.40;;;9.90;98.30;;;;;;4432011;32;20069;-67
2023/05/09 03:43:34;;;;;;;1.95;1.20;;;9.90;98.70;;;;;;4428958;32;20062;-67
2023/05/09 03:45:59;;;;;;;0.57;0.57;;;9.80;98.40;;;;;;4430552;32;20770;-67
2023/05/09 03:48:25;;;;;;;0.60;0.60;;;9.80;98.50;;;;;;4434301;32;20061;-67
2023/05/09 03:50:50;;;;;;;0.90;0.73;;;9.80;98.60;;;;;;4429316;32;20115;-67
2023/05/09 03:53:16;;;;;;;0.57;0.57;;;9.70;98.80;;;;;;4432667;32;20072;-66
2023/05/09 03:55:41;;;;;;;0.40;0.40;;;9.60;99.10;;;;;;4430398;32;20130;-66
2023/05/09 03:58:07;;;;;;;1.45;0.85;;;9.60;98.90;;;;;;4432777;32;20088;-67
2023/05/09 04:00:32;;;;;;;0.50;0.50;;;9.60;99.30;;;;;;4433188;32;20112;-67
2023/05/09 04:02:58;;;;;;;0.50;0.50;;;9.60;99.10;;;;;;4433220;32;20062;-67
2023/05/09 04:05:23;;;;;;;0.73;0.73;;;9.60;99.50;;;;;;4430161;32;20415;-67
2023/05/09 04:07:49;;;;;;;0.70;0.70;;;9.70;98.80;;;;;;4431134;32;20300;-67
2023/05/09 04:10:14;;;;;;;0.73;0.73;;;9.80;98.60;;;;;;4430952;32;20567;-67
2023/05/09 04:12:40;;;;;;;1.23;1.08;;;9.90;98.40;;;;;;4429071;32;20155;-67
2023/05/09 04:15:06;;;;;;;0.50;0.50;;;9.90;98.50;;;;;;4432967;32;20085;-67
2023/05/09 04:17:32;;;;;;;0.75;0.55;;;9.80;98.50;;;;;;4430153;32;20073;-67
2023/05/09 04:19:58;;;;;;;4.50;1.77;;;9.80;98.90;;;;;;4430526;32;20548;-67
2023/05/09 04:22:23;;;;;;;1.20;1.12;;;9.80;99.00;;;;;;4423179;32;20081;-67
2023/05/09 04:24:49;;;;;;;0.45;0.45;;;9.80;98.60;;;;;;4430117;32;20152;-67
2023/05/09 04:27:15;;;;;;;0.70;0.70;;;9.80;98.90;;;;;;4432600;32;20097;-67
2023/05/09 04:29:41;;;;;;;0.52;0.50;;;9.90;98.50;;;;;;4431762;32;20538;-66
2023/05/09 04:32:06;;;;;;;0.30;0.30;;;10.10;98.70;;;;;;4432243;32;20136;-66
2023/05/09 04:34:32;;;;;;;0.43;0.40;;;10.00;98.30;;;;;;4427547;32;20406;-67
2023/05/09 04:36:57;;;;;;;0.50;0.50;;;10.10;98.70;;;;;;4429166;32;20387;-67
2023/05/09 04:39:23;;;;;;;0.40;0.40;;;10.20;98.70;;;;;;4431945;32;20092;-67
2023/05/09 04:41:48;;;;;;;0.50;0.50;;;10.20;98.10;;;;;;4430503;32;20064;-66
2023/05/09 04:44:14;;;;;;;0.40;0.40;;;10.30;98.10;;;;;;4428817;32;20068;-66
2023/05/09 04:46:40;;;;;;;0.32;0.32;;;10.30;98.50;;;;;;4429923;32;20800;-67
2023/05/09 04:49:05;;;;;;;1.00;0.75;;;10.30;97.90;;;;;;4429371;32;20104;-67
2023/05/09 04:51:30;;;;;;;0.55;0.55;;;10.20;98.70;;;;;;4429061;32;20090;-66
2023/05/09 04:53:56;;;;;;;0.40;0.40;;;10.20;98.40;;;;;;4421709;32;20136;-65
2023/05/09 04:56:22;;;;;;;0.65;0.65;;;10.30;98.20;;;;;;4431281;32;20080;-67
2023/05/09 04:58:47;;;;;;;0.45;0.45;;;10.30;98.40;;;;;;4429590;32;20084;-67
2023/05/09 05:01:13;;;;;;;0.88;0.80;;;10.30;98.20;;;;;;4424442;32;20636;-66
2023/05/09 05:03:38;;;;;;;0.55;0.52;;;10.30;98.50;;;;;;4427445;32;20105;-66
2023/05/09 05:06:04;;;;;;;0.45;0.45;;;10.30;98.50;;;;;;4420888;32;20088;-66
2023/05/09 05:08:29;;;;;;;6.22;1.50;;;10.40;98.40;;;;;;4429126;32;20153;-67
2023/05/09 05:10:55;;;;;;;0.70;0.70;;;10.60;98.10;;;;;;4426733;32;20084;-66
2023/05/09 05:13:21;;;;;;;0.52;0.52;;;10.60;98.10;;;;;;4428433;32;20081;-66
2023/05/09 05:15:46;;;;;;;0.75;0.60;;;10.60;97.80;;;;;;4434217;32;20626;-66
2023/05/09 05:18:11;;;;;;;0.40;0.40;;;10.70;98.10;;;;;;4417607;32;20179;-66
2023/05/09 05:20:40;;;;;;;0.60;0.60;;;10.70;98.80;;;;;;4431382;32;20090;-67
2023/05/09 05:23:06;;;;;;;0.45;0.45;;;10.70;99.30;;;;;;4433241;32;20457;-69
2023/05/09 05:25:32;;;;;;;0.82;0.60;;;10.80;98.00;;;;;;4426577;32;20504;-66
2023/05/09 05:27:58;;;;;;;0.77;0.52;;;10.90;98.20;;;;;;4418815;32;20088;-66
2023/05/09 05:30:24;;;;;;;1.45;0.62;;;10.90;98.00;;;;;;4421057;32;20150;-66
2023/05/09 05:32:50;;;;;;;0.40;0.40;;;10.90;98.20;;;;;;4414919;32;20080;-68
2023/05/09 05:35:15;;;;;;;0.40;0.40;;;11.00;98.70;;;;;;4427280;32;20069;-68
2023/05/09 05:37:43;;;;;;;0.70;0.52;;;11.10;97.70;;;;;;4419700;32;20081;-67
2023/05/09 05:40:10;;;;;;;0.40;0.40;;;11.10;97.10;;;;;;4417460;32;20212;-68
2023/05/09 05:42:36;;;;;;;0.45;0.45;;;11.20;97.20;;;;;;4420252;32;20096;-66
2023/05/09 05:45:04;;;;;;;1.45;1.15;;;11.20;96.80;;;;;;4421139;32;20698;-67
2023/05/09 05:47:33;;;;;;;2.30;1.00;;;11.30;96.90;;;;;;4422708;32;20098;-68
2023/05/09 05:50:00;;;;;;;0.50;0.50;;;11.50;96.70;;;;;;4423081;32;20573;-67
2023/05/09 05:52:26;;;;;;;0.52;0.52;;;11.50;96.20;;;;;;4423655;32;20139;-66
2023/05/09 05:54:52;;;;;;;0.60;0.60;;;11.40;96.40;;;;;;4425633;32;20072;-66
2023/05/09 05:57:18;;;;;;;0.85;0.85;;;11.40;96.50;;;;;;4418213;32;20108;-67
2023/05/09 05:59:46;;;;;;;0.30;0.30;;;11.50;96.30;;;;;;4415549;32;20097;-66
2023/05/09 06:02:12;;;;;;;0.40;0.40;;;11.70;96.30;;;;;;4413664;32;20160;-67
2023/05/09 06:04:37;;;;;;;0.37;0.37;;;11.70;95.70;;;;;;4410724;32;20356;-65
2023/05/09 06:07:03;;;;;;;0.50;0.50;;;11.70;96.10;;;;;;4396487;32;20147;-66
2023/05/09 06:09:28;;;;;;;3.12;0.77;;;11.80;95.60;;;;;;4393653;32;20143;-66
2023/05/09 06:11:53;;;;;;;1.30;0.60;;;11.90;95.80;;;;;;4403292;32;20126;-66
2023/05/09 06:14:19;;;;;;;0.40;0.40;;;11.80;95.90;;;;;;4404270;32;20179;-66
2023/05/09 06:16:44;;;;;;;0.40;0.40;;;11.90;95.50;;;;;;4402606;32;20084;-66
2023/05/09 06:19:10;;;;;;;1.02;0.65;;;12.00;95.10;;;;;;4403981;32;21659;-66
2023/05/09 06:21:35;;;;;;;2.08;0.60;;;12.00;94.90;;;;;;4407156;32;20188;-67
2023/05/09 06:24:02;;;;;;;1.17;0.88;;;12.10;94.80;;;;;;4401336;32;20674;-66
2023/05/09 06:26:28;;;;;;;2.90;0.68;;;12.20;95.00;;;;;;4394869;32;20100;-66
2023/05/09 06:28:53;;;;;;;0.35;0.35;;;12.20;95.00;;;;;;4393314;32;20249;-66
2023/05/09 06:31:19;;;;;;;0.50;0.50;;;12.20;94.60;;;;;;4391838;32;20217;-66
2023/05/09 06:33:44;;;;;;;0.45;0.45;;;12.30;95.40;;;;;;4391590;32;20137;-66
2023/05/09 06:36:10;;;;;;;1.35;1.12;;;12.30;94.40;;;;;;4389335;32;20643;-66
2023/05/09 06:38:37;;;;;;;0.40;0.40;;;12.40;94.30;;;;;;4390968;32;20152;-66
2023/05/09 06:41:02;;;;;;;1.20;1.05;;;12.40;94.60;;;;;;4398559;32;20168;-65
2023/05/09 06:43:28;;;;;;;0.40;0.40;;;12.40;94.40;;;;;;4396723;32;20132;-66
2023/05/09 06:45:53;;;;;;;0.43;0.43;;;12.40;93.80;;;;;;4395233;32;20084;-66
2023/05/09 06:48:19;;;;;;;0.60;0.60;;;12.50;93.90;;;;;;4398897;32;21010;-66
2023/05/09 06:50:44;;;;;;;0.40;0.40;;;12.50;93.90;;;;;;4392421;32;20131;-66
2023/05/09 06:53:10;;;;;;;0.70;0.50;;;12.60;93.70;;;;;;4397041;32;22129;-66
2023/05/09 06:55:35;;;;;;;1.33;1.10;;;12.60;93.80;;;;;;4394657;32;20193;-65
2023/05/09 06:58:02;;;;;;;0.50;0.50;;;12.60;94.40;;;;;;4394690;32;20642;-66
2023/05/09 07:00:27;;;;;;;0.88;0.80;;;12.60;94.40;;;;;;4391353;32;20666;-65
2023/05/09 07:02:53;;;;;;;0.70;0.70;;;12.70;93.80;;;;;;4382177;32;20492;-65
2023/05/09 07:05:19;;;;;;;1.10;0.85;;;12.70;93.50;;;;;;4374948;32;20154;-66
2023/05/09 07:07:44;;;;;;;0.85;0.77;;;12.80;93.70;;;;;;4374611;32;20342;-65
2023/05/09 07:10:10;;;;;;;0.35;0.35;;;12.90;93.80;;;;;;4385031;32;20851;-66
2023/05/09 07:12:36;;;;;;;1.87;0.50;;;13.00;94.00;;;;;;4389124;32;21739;-65
2023/05/09 07:15:01;;;;;;;0.40;0.40;;;13.10;93.90;;;;;;4387233;32;20917;-65
2023/05/09 07:17:28;;;;;;;0.50;0.50;;;13.20;93.00;;;;;;4390872;32;21504;-65
2023/05/09 07:19:54;;;;;;;11.88;1.95;;;13.10;93.20;;;;;;4386390;32;20347;-63
2023/05/09 07:22:20;;;;;;;0.60;0.60;;;13.10;93.30;;;;;;4389277;32;20836;-67
2023/05/09 07:24:46;;;;;;;0.68;0.68;;;13.30;93.60;;;;;;4380329;32;20846;-67
2023/05/09 07:27:11;;;;;;;0.47;0.47;;;13.40;93.10;;;;;;4378676;32;20089;-66
2023/05/09 07:29:37;;;;;;;2.20;1.52;;;13.60;93.40;;;;;;4397192;32;21747;-66
2023/05/09 07:32:02;;;;;;;0.40;0.40;;;13.80;93.60;;;;;;4390771;32;20742;-67
2023/05/09 07:34:28;;;;;;;0.60;0.60;;;14.00;92.30;;;;;;4402291;32;20594;-67
2023/05/09 07:36:53;;;;;;;0.70;0.55;;;14.00;92.50;;;;;;4396773;32;20085;-66
2023/05/09 07:39:19;;;;;;;1.10;0.62;;;14.00;93.20;;;;;;4401458;32;20574;-66
2023/05/09 07:41:44;;;;;;;0.55;0.55;;;14.00;92.50;;;;;;4407868;32;20165;-67
2023/05/09 07:44:10;;;;;;;0.40;0.40;;;14.10;92.40;;;;;;4402320;32;20281;-67
2023/05/09 07:46:37;;;;;;;0.25;0.25;;;14.20;92.10;;;;;;4404491;32;20157;-68
2023/05/09 07:49:03;;;;;;;1.90;1.08;;;14.40;91.50;;;;;;4393246;32;20778;-67
2023/05/09 07:51:28;;;;;;;0.40;0.40;;;14.40;91.80;;;;;;4384896;32;20215;-67
2023/05/09 07:53:55;;;;;;;0.65;0.65;;;14.30;91.10;;;;;;4403437;32;20101;-67
2023/05/09 07:56:21;;;;;;;0.50;0.50;;;14.40;91.00;;;;;;4393350;32;20097;-68
2023/05/09 07:58:47;;;;;;;0.40;0.40;;;14.50;91.20;;;;;;4402367;32;20513;-67
2023/05/09 08:01:12;;;;;;;0.45;0.45;;;14.60;90.70;;;;;;4395899;32;20069;-67
2023/05/09 08:03:38;;;;;;;0.62;0.62;;;14.70;90.80;;;;;;4400666;32;20473;-67
2023/05/09 08:06:03;;;;;;;9.95;0.75;;;14.90;91.20;;;;;;4393725;32;20122;-67
2023/05/09 08:08:29;;;;;;;0.62;0.60;;;15.10;90.50;;;;;;4397364;32;20108;-67
2023/05/09 08:10:55;;;;;;;0.40;0.40;;;15.20;90.40;;;;;;4408648;32;20583;-68
2023/05/09 08:13:21;;;;;;;0.50;0.50;;;15.10;89.90;;;;;;4401743;32;20068;-67
2023/05/09 08:15:47;;;;;;;0.37;0.37;;;15.10;88.90;;;;;;4386302;32;20542;-68
2023/05/09 08:18:13;;;;;;;0.50;0.50;;;15.20;89.20;;;;;;4402523;32;20577;-66
2023/05/09 08:20:39;;;;;;;0.22;0.22;;;15.10;88.10;;;;;;4403630;32;21042;-67
2023/05/09 08:23:05;;;;;;;0.30;0.30;;;15.30;88.60;;;;;;4403367;32;20137;-67
2023/05/09 08:25:31;;;;;;;0.40;0.40;;;15.40;88.40;;;;;;4407843;32;20089;-66
2023/05/09 08:27:56;;;;;;;0.55;0.55;;;15.30;87.30;;;;;;4403255;32;20097;-67
2023/05/09 08:30:22;;;;;;;0.52;0.52;;;15.50;87.50;;;;;;4397531;32;20522;-66
2023/05/09 08:32:47;;;;;;;0.40;0.40;;;15.70;85.90;;;;;;4405149;32;20489;-66
2023/05/09 08:35:12;;;;;;;0.32;0.32;;;15.70;87.50;;;;;;4404146;32;20593;-67
2023/05/09 08:37:38;;;;;;;0.37;0.37;;;15.80;85.20;;;;;;4394513;32;20085;-66
2023/05/09 08:40:06;;;;;;;0.30;0.30;;;15.90;85.70;;;;;;4401261;32;20096;-67
2023/05/09 08:42:34;;;;;;;0.30;0.30;;;15.80;84.50;;;;;;4403610;32;20201;-66
2023/05/09 08:45:05;;;;;;;1.17;0.52;;;15.80;85.90;;;;;;4403580;32;20399;-67
2023/05/09 08:47:33;;;;;;;;;;;15.90;84.40;;;;;;4400885;32;20105;-67
2023/05/09 08:49:58;;;;;;;0.40;0.40;;;15.90;84.40;;;;;;4405632;32;19990;-67
2023/05/09 08:52:24;;;;;;;1.45;0.75;;;16.10;85.20;;;;;;4408836;32;20515;-66
2023/05/09 08:54:50;;;;;;;0.32;0.32;;;16.20;83.20;;;;;;4410695;32;20073;-64
2023/05/09 08:57:16;;;;;;;0.40;0.40;;;16.40;85.00;;;;;;4411769;32;20361;-67
2023/05/09 08:59:41;;;;;;;2.28;1.20;;;16.60;82.90;;;;;;4404812;32;20147;-66
2023/05/09 09:02:09;;;;;;;0.35;0.35;;;16.50;80.90;;;;;;4400880;32;20089;-67
2023/05/09 09:04:34;;;;;;;2.70;0.70;;;16.50;81.50;;;;;;4408571;32;20081;-67
2023/05/09 09:07:02;;;;;;;0.65;0.62;;;16.60;82.20;;;;;;4405470;32;20085;-67
2023/05/09 09:09:28;;;;;;;0.70;0.70;;;16.70;84.30;;;;;;4399081;32;20540;-66
2023/05/09 09:11:54;;;;;;;1.10;0.65;;;16.80;79.90;;;;;;4399404;32;20840;-66
2023/05/09 09:14:24;;;;;;;0.40;0.40;;;16.90;79.30;;;;;;4406712;32;20176;-67
2023/05/09 09:16:53;;;;;;;1.15;0.60;;;16.70;77.80;;;;;;4405987;32;20530;-66
2023/05/09 09:19:20;;;;;;;0.30;0.30;;;16.50;79.90;;;;;;4410271;32;20097;-66
2023/05/09 09:21:49;;;;;;;3.90;1.30;;;16.70;79.60;;;;;;4400031;32;20069;-65
2023/05/09 09:24:20;;;;;;;0.40;0.40;;;16.90;78.90;;;;;;4407320;32;20173;-65
2023/05/09 09:26:47;;;;;;;0.60;0.60;;;16.90;77.20;;;;;;4405382;32;20096;-65
2023/05/09 09:29:14;;;;;;;0.30;0.30;;;17.10;77.20;;;;;;4394652;32;20092;-67
2023/05/09 09:31:44;;;;;;;0.30;0.30;;;17.20;80.30;;;;;;4387580;32;21513;-66
2023/05/09 09:34:09;;;;;;;0.30;0.30;;;17.40;78.50;;;;;;4404912;32;20097;-66
2023/05/09 09:36:35;;;;;;;0.82;0.82;;;17.40;77.70;;;;;;4406633;32;20946;-67
2023/05/09 09:39:04;;;;;;;0.40;0.40;;;17.50;78.90;;;;;;4411227;32;20081;-66
2023/05/09 09:41:31;;;;;;;0.30;0.30;;;17.80;78.10;;;;;;4407948;32;20097;-66
2023/05/09 09:43:57;;;;;;;0.30;0.30;;;17.80;74.40;;;;;;4406193;32;20407;-66
2023/05/09 09:46:23;;;;;;;0.30;0.30;;;17.90;74.40;;;;;;4402677;32;20112;-66
2023/05/09 09:48:53;;;;;;;0.30;0.30;;;17.90;73.90;;;;;;4391980;32;20097;-66
2023/05/09 09:51:19;;;;;;;0.30;0.30;;;18.10;74.30;;;;;;4410567;32;20084;-66
2023/05/09 09:53:46;;;;;;;0.80;0.75;;;18.30;73.50;;;;;;4403066;32;20104;-66
2023/05/09 09:56:11;;;;;;;0.32;0.32;;;18.40;73.40;;;;;;4398794;32;20928;-66
2023/05/09 09:58:37;;;;;;;3.15;0.98;;;18.50;73.70;;;;;;4401075;32;20240;-66
2023/05/09 10:01:08;;;;;;;0.30;0.30;;;18.90;75.70;;;;;;4406184;32;20554;-66
2023/05/09 10:03:36;;;;;;;0.85;0.45;;;19.20;73.90;;;;;;4415182;32;20675;-66
2023/05/09 10:06:02;;;;;;;2.40;1.20;;;19.40;74.60;;;;;;4408710;32;20623;-66
2023/05/09 10:08:27;;;;;;;1.37;0.55;;;19.50;73.30;;;;;;4416722;32;20089;-66
2023/05/09 10:10:53;;;;;;;0.30;0.30;;;19.40;72.60;;;;;;4421558;32;20533;-66
2023/05/09 10:13:19;;;;;;;0.30;0.30;;;19.20;73.90;;;;;;4413913;32;20148;-65
2023/05/09 10:15:46;;;;;;;1.45;0.62;;;19.20;75.50;;;;;;4404950;32;20093;-66
2023/05/09 10:18:16;;;;;;;10.20;3.28;;;19.40;73.30;;;;;;4401919;32;20081;-64
2023/05/09 10:20:43;;;;;;;0.50;0.50;;;19.50;73.70;;;;;;4409106;32;20589;-64
2023/05/09 10:23:10;;;;;;;0.30;0.30;;;19.80;72.00;;;;;;4416053;32;20130;-65
2023/05/09 10:25:43;;;;;;;0.57;0.57;;;20.10;72.60;;;;;;4414126;32;20104;-65
2023/05/09 10:28:12;;;;;;;1.08;0.40;;;20.10;71.70;;;;;;4420233;32;20179;-65
2023/05/09 10:30:45;;;;;;;0.30;0.30;;;20.10;73.90;;;;;;4420432;32;20061;-66
2023/05/09 10:33:14;;;;;;;1.35;0.73;;;20.50;72.30;;;;;;4416597;32;20475;-66
2023/05/09 10:35:44;;;;;;;0.30;0.30;;;20.80;71.10;;;;;;4420919;32;20077;-65
2023/05/09 10:38:11;;;;;;;0.30;0.30;;;21.10;72.90;;;;;;4418255;32;20613;-64
2023/05/09 10:40:37;;;;;;;0.45;0.45;;;21.00;67.30;;;;;;4418085;32;20560;-66
2023/05/09 10:43:04;;;;;;;0.75;0.73;;;21.00;69.80;;;;;;4422713;32;20093;-63
2023/05/09 10:45:30;;;;;;;0.50;0.47;;;20.80;67.40;;;;;;4418837;32;20121;-65
2023/05/09 10:47:56;;;;;;;0.57;0.57;;;20.80;67.10;;;;;;4414907;32;20084;-64
2023/05/09 10:50:22;;;;;;;0.47;0.40;;;20.90;66.50;;;;;;4421997;32;20468;-63
2023/05/09 10:53:06;;;;;;;0.30;0.30;;;20.70;68.10;;;;;;4409225;32;20065;-65
2023/05/09 10:55:47;;;;;;;0.40;0.40;;;21.10;67.30;;;;;;4404162;32;20152;-65
2023/05/09 10:58:32;;;;;;;0.30;0.30;;;21.60;67.20;;;;;;4397982;32;20532;-65
2023/05/09 11:00:59;;;;;;;1.37;0.98;;;21.80;65.50;;;;;;4407749;32;20513;-65
2023/05/09 11:03:25;;;;;;;0.40;0.40;;;21.70;65.90;;;;;;4413886;32;20098;-64
2023/05/09 11:05:54;;;;;;;0.28;0.28;;;21.90;66.20;;;;;;4410489;32;20366;-65
2023/05/09 11:08:28;;;;;;;0.50;0.50;;;21.90;66.70;;;;;;4408263;32;20167;-65
2023/05/09 11:10:55;;;;;;;0.90;0.70;;;22.10;67.00;;;;;;4409165;32;20548;-65
2023/05/09 11:13:24;;;;;;;7.03;0.75;;;22.30;64.10;;;;;;4406853;32;20097;-64
2023/05/09 11:16:07;;;;;;;3.92;0.98;;;22.30;63.30;;;;;;4408664;32;20140;-65
2023/05/09 11:18:32;;;;;;;1.85;0.98;;;22.60;63.00;;;;;;4416424;32;20097;-65
2023/05/09 11:21:05;;;;;;;0.70;0.70;;;22.60;62.80;;;;;;4417750;32;22330;-65
2023/05/09 11:23:32;;;;;;;0.50;0.40;;;22.70;61.20;;;;;;4415341;32;20065;-65
2023/05/09 11:26:06;;;;;;;0.20;0.20;;;22.80;61.70;;;;;;4420940;32;20907;-65
2023/05/09 11:28:35;;;;;;;0.30;0.30;;;22.70;61.70;;;;;;4411699;32;20065;-65
2023/05/09 11:31:17;;;;;;;0.40;0.40;;;22.80;62.70;;;;;;4410900;32;20519;-65
2023/05/09 11:33:45;;;;;;;0.32;0.32;;;23.00;61.10;;;;;;4411945;32;20869;-65
2023/05/09 11:36:28;;;;;;;0.20;0.20;;;23.50;60.70;;;;;;4412340;32;20073;-65
2023/05/09 11:39:07;;;;;;;2.17;0.98;;;23.30;59.60;;;;;;4417173;32;20102;-67
2023/05/09 11:41:39;;;;;;;0.30;0.30;;;23.00;60.00;;;;;;4418117;32;21105;-67
2023/05/09 11:44:20;;;;;;;0.60;0.60;;;23.50;59.10;;;;;;4405151;32;82623;-65
2023/05/09 11:46:47;;;;;;;6.43;1.23;;;23.60;57.80;;;;;;4409019;32;20804;-65
2023/05/09 11:49:14;;;;;;;0.43;0.43;;;23.70;58.70;;;;;;4415757;32;20053;-64
2023/05/09 11:51:40;;;;;;;0.30;0.30;;;24.00;58.00;;;;;;4419595;32;20633;-65
2023/05/09 11:54:10;;;;;;;0.85;0.73;;;23.80;60.50;;;;;;4422078;32;20089;-65
2023/05/09 11:56:39;;;;;;;0.40;0.40;;;23.90;59.00;;;;;;4419828;32;20069;-65
2023/05/09 11:59:06;;;;;;;0.20;0.20;;;24.30;56.90;;;;;;4403982;32;20077;-65
2023/05/09 12:01:32;;;;;;;0.30;0.30;;;24.90;56.40;;;;;;4421955;32;20831;-65
2023/05/09 12:03:58;;;;;;;0.20;0.20;;;25.40;56.10;;;;;;4418183;32;20104;-65
2023/05/09 12:06:25;;;;;;;3.90;0.85;;;25.10;55.00;;;;;;4417162;32;20080;-65
2023/05/09 12:08:51;;;;;;;1.27;0.95;;;25.20;55.00;;;;;;4418977;32;20164;-65
2023/05/09 12:11:17;;;;;;;3.08;1.12;;;25.80;54.90;;;;;;4402100;32;20564;-65
2023/05/09 12:13:45;;;;;;;2.22;0.82;;;25.60;56.00;;;;;;4417473;32;20489;-65
2023/05/09 12:16:11;;;;;;;0.30;0.30;;;25.50;56.80;;;;;;4421479;32;20088;-65
2023/05/09 12:18:36;;;;;;;0.35;0.35;;;25.80;55.80;;;;;;4420327;32;20068;-65
2023/05/09 12:21:02;;;;;;;0.20;0.20;;;25.70;55.40;;;;;;4423117;32;21079;-65
2023/05/09 12:23:33;;;;;;;0.20;0.20;;;25.60;55.10;;;;;;4418282;32;20568;-65
2023/05/09 12:25:59;;;;;;;0.43;0.40;;;25.50;55.00;;;;;;4419710;32;20124;-65
2023/05/09 12:28:25;;;;;;;1.00;0.65;;;25.50;54.50;;;;;;4415781;32;20442;-65
2023/05/09 12:30:52;;;;;;;0.10;0.10;;;25.70;55.60;;;;;;4413559;32;20082;-65
2023/05/09 12:33:18;;;;;;;3.25;0.37;;;26.20;54.30;;;;;;4410007;32;20077;-66
2023/05/09 12:35:46;;;;;;;0.10;0.10;;;26.40;55.30;;;;;;4423855;32;20090;-67
2023/05/09 12:38:19;;;;;;;0.60;0.50;;;26.30;54.00;;;;;;4420026;32;20077;-66
2023/05/09 12:40:47;;;;;;;1.35;0.75;;;26.60;54.10;;;;;;4425483;32;20073;-66
2023/05/09 12:43:13;;;;;;;5.93;1.08;;;26.20;53.60;;;;;;4421620;32;20069;-67
2023/05/09 12:45:38;;;;;;;0.17;0.17;;;26.40;53.50;;;;;;4423274;32;20130;-67
2023/05/09 12:48:04;;;;;;;1.65;0.90;;;26.50;53.60;;;;;;4425173;32;20070;-67